Blackwell, United Kingdom
Current Conditions -  °F | °C
As of 12:50 AM on Wednesday 22 Oct 2014 (Local Time) from EGNX Reporting Station
Scattered Clouds Scattered Clouds  
Wind Chill: 38°   Ceiling: Unl
Heat Index: 45°   Visibility: 6mi
Dew Point: 41°   Wind: 13mph
Humidity: 87%   Direction: 260°W
Pressure: 30.12"   Gusts: NA
Location:  53.12°N, 1.33°W
Report Text: EGNX 212350Z 26011KT 9999 FEW028 SCT034 07/05 Q1020
Loading
Personal Weather Stations






























Interactive Weather Map
Tropical Storm Tracking
New forecast layout! Learn more

10-Day Weather Forecast

Advertisements
Track Severe Weather on mobile